sensor_id;sensor_type;location;lat;lon;timestamp;pressure;altitude;pressure_sealevel;temperature;humidity
34742;BME280;20968;42.696;23.360;2023-05-02T00:01:10;95554.41;;;14.66;60.20
34742;BME280;20968;42.696;23.360;2023-05-02T00:03:36;95556.38;;;14.60;60.43
34742;BME280;20968;42.696;23.360;2023-05-02T00:06:01;95564.00;;;14.70;60.60
34742;BME280;20968;42.696;23.360;2023-05-02T00:08:27;95561.56;;;14.83;60.15
34742;BME280;20968;42.696;23.360;2023-05-02T00:10:53;95559.97;;;14.71;60.31
34742;BME280;20968;42.696;23.360;2023-05-02T00:13:18;95554.41;;;14.66;60.12
34742;BME280;20968;42.696;23.360;2023-05-02T00:15:43;95554.41;;;14.66;61.06
34742;BME280;20968;42.696;23.360;2023-05-02T00:18:09;95560.03;;;14.77;60.47
34742;BME280;20968;42.696;23.360;2023-05-02T00:20:34;95561.06;;;14.84;60.06
34742;BME280;20968;42.696;23.360;2023-05-02T00:23:01;95564.13;;;14.86;60.45
34742;BME280;20968;42.696;23.360;2023-05-02T00:25:27;95567.66;;;14.92;59.92
34742;BME280;20968;42.696;23.360;2023-05-02T00:27:52;95562.88;;;14.87;59.70
34742;BME280;20968;42.696;23.360;2023-05-02T00:30:18;95564.91;;;14.92;60.00
34742;BME280;20968;42.696;23.360;2023-05-02T00:32:45;95571.00;;;15.02;59.47
34742;BME280;20968;42.696;23.360;2023-05-02T00:35:11;95573.53;;;15.05;59.71
34742;BME280;20968;42.696;23.360;2023-05-02T00:37:37;95577.31;;;15.08;59.24
34742;BME280;20968;42.696;23.360;2023-05-02T00:40:05;95569.69;;;14.97;59.84
34742;BME280;20968;42.696;23.360;2023-05-02T00:42:32;95575.31;;;15.08;59.38
34742;BME280;20968;42.696;23.360;2023-05-02T00:45:00;95578.53;;;14.96;59.61
34742;BME280;20968;42.696;23.360;2023-05-02T00:47:25;95590.13;;;15.00;59.25
34742;BME280;20968;42.696;23.360;2023-05-02T00:49:51;95595.69;;;15.00;59.44
34742;BME280;20968;42.696;23.360;2023-05-02T00:52:17;95600.47;;;14.99;59.55
34742;BME280;20968;42.696;23.360;2023-05-02T00:54:42;95589.81;;;14.87;59.43
34742;BME280;20968;42.696;23.360;2023-05-02T00:57:08;95593.84;;;14.86;59.76
34742;BME280;20968;42.696;23.360;2023-05-02T00:59:34;95588.53;;;14.82;60.11
34742;BME280;20968;42.696;23.360;2023-05-02T01:05:14;95595.69;;;15.00;59.98
34742;BME280;20968;42.696;23.360;2023-05-02T01:10:43;95589.72;;;15.18;59.53
34742;BME280;20968;42.696;23.360;2023-05-02T01:13:18;95590.50;;;15.18;59.22
34742;BME280;20968;42.696;23.360;2023-05-02T01:15:47;95591.75;;;15.23;59.34
34742;BME280;20968;42.696;23.360;2023-05-02T01:18:20;95596.56;;;15.22;59.88
34742;BME280;20968;42.696;23.360;2023-05-02T01:20:51;95600.88;;;15.23;59.88
34742;BME280;20968;42.696;23.360;2023-05-02T01:23:27;95596.09;;;15.24;59.42
34742;BME280;20968;42.696;23.360;2023-05-02T01:29:04;95589.56;;;15.32;59.63
34742;BME280;20968;42.696;23.360;2023-05-02T01:31:45;95579.72;;;15.31;59.44
34742;BME280;20968;42.696;23.360;2023-05-02T01:34:12;95574.94;;;15.26;59.75
34742;BME280;20968;42.696;23.360;2023-05-02T01:36:42;95588.28;;;15.28;59.35
34742;BME280;20968;42.696;23.360;2023-05-02T01:39:19;95582.16;;;15.13;60.21
34742;BME280;20968;42.696;23.360;2023-05-02T01:41:49;95577.06;;;15.06;60.53
34742;BME280;20968;42.696;23.360;2023-05-02T01:44:17;95589.97;;;15.14;60.29
34742;BME280;20968;42.696;23.360;2023-05-02T01:46:45;95589.66;;;15.01;60.45
34742;BME280;20968;42.696;23.360;2023-05-02T01:49:11;95591.06;;;14.80;61.24
34742;BME280;20968;42.696;23.360;2023-05-02T01:51:46;95593.97;;;14.66;62.23
34742;BME280;20968;42.696;23.360;2023-05-02T01:54:12;95590.00;;;14.73;61.68
34742;BME280;20968;42.696;23.360;2023-05-02T01:56:40;95590.19;;;14.64;61.71
34742;BME280;20968;42.696;23.360;2023-05-02T01:59:09;95586.13;;;14.59;62.48
34742;BME280;20968;42.696;23.360;2023-05-02T02:01:36;95587.16;;;14.62;62.26
34742;BME280;20968;42.696;23.360;2023-05-02T02:04:03;95588.59;;;14.52;62.69
34742;BME280;20968;42.696;23.360;2023-05-02T02:06:31;95584.94;;;14.35;63.09
34742;BME280;20968;42.696;23.360;2023-05-02T02:08:56;95574.63;;;14.10;63.29
34742;BME280;20968;42.696;23.360;2023-05-02T02:11:47;95580.69;;;14.08;64.17
34742;BME280;20968;42.696;23.360;2023-05-02T02:14:17;95573.44;;;14.11;63.93
34742;BME280;20968;42.696;23.360;2023-05-02T02:16:46;95572.66;;;14.10;63.81
34742;BME280;20968;42.696;23.360;2023-05-02T02:19:14;95582.09;;;14.24;63.01
34742;BME280;20968;42.696;23.360;2023-05-02T02:21:42;95587.91;;;14.31;62.96
34742;BME280;20968;42.696;23.360;2023-05-02T02:24:12;95599.59;;;14.41;63.02
34742;BME280;20968;42.696;23.360;2023-05-02T02:26:37;95589.31;;;14.47;62.89
34742;BME280;20968;42.696;23.360;2023-05-02T02:29:03;95580.44;;;14.43;63.15
34742;BME280;20968;42.696;23.360;2023-05-02T02:31:32;95590.44;;;14.29;63.40
34742;BME280;20968;42.696;23.360;2023-05-02T02:33:58;95579.94;;;14.39;62.90
34742;BME280;20968;42.696;23.360;2023-05-02T02:36:28;95592.53;;;14.40;63.75
34742;BME280;20968;42.696;23.360;2023-05-02T02:41:42;95592.31;;;14.43;62.99
34742;BME280;20968;42.696;23.360;2023-05-02T02:44:27;95595.59;;;14.47;63.04
34742;BME280;20968;42.696;23.360;2023-05-02T02:47:05;95597.06;;;14.43;63.36
34742;BME280;20968;42.696;23.360;2023-05-02T02:55:22;95596.44;;;14.28;63.71
34742;BME280;20968;42.696;23.360;2023-05-02T02:57:58;95597.00;;;14.32;63.63
34742;BME280;20968;42.696;23.360;2023-05-02T03:00:24;95606.91;;;14.38;63.47
34742;BME280;20968;42.696;23.360;2023-05-02T03:02:52;95597.50;;;14.30;63.15
34742;BME280;20968;42.696;23.360;2023-05-02T03:05:21;95606.91;;;14.38;63.58
34742;BME280;20968;42.696;23.360;2023-05-02T03:07:47;95600.06;;;14.34;63.52
34742;BME280;20968;42.696;23.360;2023-05-02T03:10:12;95605.31;;;14.32;63.14
34742;BME280;20968;42.696;23.360;2023-05-02T03:12:38;95615.16;;;14.33;63.39
34742;BME280;20968;42.696;23.360;2023-05-02T03:17:42;95620.97;;;14.35;62.72
34742;BME280;20968;42.696;23.360;2023-05-02T03:20:09;95619.97;;;14.38;63.29
34742;BME280;20968;42.696;23.360;2023-05-02T03:22:34;95631.84;;;14.44;63.34
34742;BME280;20968;42.696;23.360;2023-05-02T03:25:00;95633.16;;;14.48;63.08
34742;BME280;20968;42.696;23.360;2023-05-02T03:27:25;95631.84;;;14.44;63.26
34742;BME280;20968;42.696;23.360;2023-05-02T03:29:51;95637.00;;;14.56;62.60
34742;BME280;20968;42.696;23.360;2023-05-02T03:32:16;95638.56;;;14.63;62.50
34742;BME280;20968;42.696;23.360;2023-05-02T03:34:42;95625.94;;;14.62;62.19
34742;BME280;20968;42.696;23.360;2023-05-02T03:37:07;95639.72;;;14.51;62.71
34742;BME280;20968;42.696;23.360;2023-05-02T03:39:34;95630.13;;;14.46;62.31
34742;BME280;20968;42.696;23.360;2023-05-02T03:41:59;95622.22;;;14.34;62.61
34742;BME280;20968;42.696;23.360;2023-05-02T03:44:25;95627.38;;;14.21;63.64
34742;BME280;20968;42.696;23.360;2023-05-02T03:46:51;95629.69;;;14.22;63.23
34742;BME280;20968;42.696;23.360;2023-05-02T03:49:16;95626.78;;;14.11;64.45
34742;BME280;20968;42.696;23.360;2023-05-02T03:51:45;95642.66;;;14.11;64.38
34742;BME280;20968;42.696;23.360;2023-05-02T03:54:12;95635.50;;;14.04;64.62
34742;BME280;20968;42.696;23.360;2023-05-02T03:56:37;95631.00;;;14.07;63.93
34742;BME280;20968;42.696;23.360;2023-05-02T03:59:03;95636.22;;;13.99;64.37
34742;BME280;20968;42.696;23.360;2023-05-02T04:01:29;95645.88;;;14.09;64.70
34742;BME280;20968;42.696;23.360;2023-05-02T04:03:55;95638.94;;;14.19;64.83
34742;BME280;20968;42.696;23.360;2023-05-02T04:06:21;95641.84;;;14.36;64.03
34742;BME280;20968;42.696;23.360;2023-05-02T04:08:47;95639.81;;;14.31;63.66
34742;BME280;20968;42.696;23.360;2023-05-02T04:11:13;95626.50;;;14.35;64.33
34742;BME280;20968;42.696;23.360;2023-05-02T04:13:38;95630.56;;;14.39;63.77
34742;BME280;20968;42.696;23.360;2023-05-02T04:16:04;95647.19;;;14.39;63.66
34742;BME280;20968;42.696;23.360;2023-05-02T04:18:30;95633.31;;;14.39;63.32
34742;BME280;20968;42.696;23.360;2023-05-02T04:20:55;95640.44;;;14.46;63.32
34742;BME280;20968;42.696;23.360;2023-05-02T04:23:21;95643.03;;;14.24;63.64
34742;BME280;20968;42.696;23.360;2023-05-02T04:25:50;95645.56;;;14.27;63.88
34742;BME280;20968;42.696;23.360;2023-05-02T04:28:16;95628.03;;;14.10;64.16
34742;BME280;20968;42.696;23.360;2023-05-02T04:30:42;95626.03;;;14.11;63.78
34742;BME280;20968;42.696;23.360;2023-05-02T04:33:07;95640.78;;;14.28;64.02
34742;BME280;20968;42.696;23.360;2023-05-02T04:35:32;95643.31;;;14.26;63.51
34742;BME280;20968;42.696;23.360;2023-05-02T04:37:58;95643.78;;;14.24;63.09
34742;BME280;20968;42.696;23.360;2023-05-02T04:40:24;95642.84;;;14.33;62.89
34742;BME280;20968;42.696;23.360;2023-05-02T04:42:50;95652.72;;;14.39;62.81
34742;BME280;20968;42.696;23.360;2023-05-02T04:45:15;95636.41;;;14.47;62.26
34742;BME280;20968;42.696;23.360;2023-05-02T04:47:41;95646.38;;;14.64;62.25
34742;BME280;20968;42.696;23.360;2023-05-02T04:50:07;95645.34;;;14.62;60.95
34742;BME280;20968;42.696;23.360;2023-05-02T04:52:34;95646.88;;;14.63;60.89
34742;BME280;20968;42.696;23.360;2023-05-02T04:54:59;95647.72;;;14.43;61.60
34742;BME280;20968;42.696;23.360;2023-05-02T04:57:25;95647.72;;;14.43;61.56
34742;BME280;20968;42.696;23.360;2023-05-02T04:59:50;95654.13;;;14.55;61.04
34742;BME280;20968;42.696;23.360;2023-05-02T05:02:16;95654.13;;;14.55;61.40
34742;BME280;20968;42.696;23.360;2023-05-02T05:04:41;95649.81;;;14.54;61.13
34742;BME280;20968;42.696;23.360;2023-05-02T05:07:07;95648.97;;;14.42;61.39
34742;BME280;20968;42.696;23.360;2023-05-02T05:09:32;95658.72;;;14.63;61.24
34742;BME280;20968;42.696;23.360;2023-05-02T05:11:58;95650.50;;;14.74;60.13
34742;BME280;20968;42.696;23.360;2023-05-02T05:14:23;95643.56;;;14.95;60.25
34742;BME280;20968;42.696;23.360;2023-05-02T05:16:49;95649.63;;;14.93;58.78
34742;BME280;20968;42.696;23.360;2023-05-02T05:19:14;95659.28;;;15.03;57.97
34742;BME280;20968;42.696;23.360;2023-05-02T05:21:40;95654.28;;;14.77;58.56
34742;BME280;20968;42.696;23.360;2023-05-02T05:24:05;95647.66;;;14.69;58.80
34742;BME280;20968;42.696;23.360;2023-05-02T05:26:31;95652.84;;;14.86;58.90
34742;BME280;20968;42.696;23.360;2023-05-02T05:28:56;95656.09;;;14.85;58.37
34742;BME280;20968;42.696;23.360;2023-05-02T05:31:21;95666.53;;;14.95;58.18
34742;BME280;20968;42.696;23.360;2023-05-02T05:33:48;95663.16;;;14.86;58.11
34742;BME280;20968;42.696;23.360;2023-05-02T05:36:13;95663.78;;;15.01;57.93
34742;BME280;20968;42.696;23.360;2023-05-02T05:38:39;95660.56;;;15.13;57.41
34742;BME280;20968;42.696;23.360;2023-05-02T05:41:05;95667.38;;;15.12;56.98
34742;BME280;20968;42.696;23.360;2023-05-02T05:43:32;95674.59;;;15.35;58.39
34742;BME280;20968;42.696;23.360;2023-05-02T05:45:57;95671.47;;;15.69;61.56
34742;BME280;20968;42.696;23.360;2023-05-02T05:48:23;95679.13;;;15.91;55.07
34742;BME280;20968;42.696;23.360;2023-05-02T05:50:48;95671.50;;;15.75;55.07
34742;BME280;20968;42.696;23.360;2023-05-02T05:53:15;95675.34;;;15.88;55.83
34742;BME280;20968;42.696;23.360;2023-05-02T05:55:40;95678.66;;;15.98;54.44
34742;BME280;20968;42.696;23.360;2023-05-02T05:58:07;95682.47;;;16.06;54.24
34742;BME280;20968;42.696;23.360;2023-05-02T06:00:36;95680.63;;;15.86;53.92
34742;BME280;20968;42.696;23.360;2023-05-02T06:03:02;95681.72;;;16.05;53.79
34742;BME280;20968;42.696;23.360;2023-05-02T06:05:28;95682.47;;;16.11;53.20
34742;BME280;20968;42.696;23.360;2023-05-02T06:07:55;95688.53;;;16.15;52.98
34742;BME280;20968;42.696;23.360;2023-05-02T06:10:20;95699.66;;;16.21;52.78
34742;BME280;20968;42.696;23.360;2023-05-02T06:12:45;95683.50;;;16.19;52.31
34742;BME280;20968;42.696;23.360;2023-05-02T06:15:11;95688.03;;;16.22;51.67
34742;BME280;20968;42.696;23.360;2023-05-02T06:17:36;95681.44;;;16.14;51.46
34742;BME280;20968;42.696;23.360;2023-05-02T06:20:02;95679.22;;;16.24;51.44
34742;BME280;20968;42.696;23.360;2023-05-02T06:22:27;95684.06;;;16.34;51.64
34742;BME280;20968;42.696;23.360;2023-05-02T06:24:53;95678.75;;;16.41;50.73
34742;BME280;20968;42.696;23.360;2023-05-02T06:27:18;95672.72;;;16.65;51.02
34742;BME280;20968;42.696;23.360;2023-05-02T06:29:45;95672.72;;;16.87;49.22
34742;BME280;20968;42.696;23.360;2023-05-02T06:32:10;95673.97;;;16.91;48.20
34742;BME280;20968;42.696;23.360;2023-05-02T06:34:36;95684.09;;;16.83;48.68
34742;BME280;20968;42.696;23.360;2023-05-02T06:37:01;95682.84;;;16.84;49.01
34742;BME280;20968;42.696;23.360;2023-05-02T06:39:27;95681.78;;;17.09;48.94
34742;BME280;20968;42.696;23.360;2023-05-02T06:41:56;95685.31;;;17.26;47.48
34742;BME280;20968;42.696;23.360;2023-05-02T06:44:22;95671.91;;;17.24;46.98
34742;BME280;20968;42.696;23.360;2023-05-02T06:46:47;95675.19;;;17.34;46.92
34742;BME280;20968;42.696;23.360;2023-05-02T06:49:14;95663.56;;;17.30;46.71
34742;BME280;20968;42.696;23.360;2023-05-02T06:51:39;95669.88;;;17.30;47.38
34742;BME280;20968;42.696;23.360;2023-05-02T06:54:05;95663.28;;;17.39;46.80
34742;BME280;20968;42.696;23.360;2023-05-02T06:56:30;95676.19;;;17.42;46.41
34742;BME280;20968;42.696;23.360;2023-05-02T06:58:56;95670.53;;;17.64;47.81
34742;BME280;20968;42.696;23.360;2023-05-02T07:01:21;95671.69;;;17.95;45.32
34742;BME280;20968;42.696;23.360;2023-05-02T07:03:47;95664.78;;;18.07;45.01
34742;BME280;20968;42.696;23.360;2023-05-02T07:06:12;95658.72;;;18.03;45.45
34742;BME280;20968;42.696;23.360;2023-05-02T07:08:38;95659.78;;;17.95;44.94
34742;BME280;20968;42.696;23.360;2023-05-02T07:11:03;95661.69;;;18.16;44.85
34742;BME280;20968;42.696;23.360;2023-05-02T07:13:29;95657.88;;;18.25;44.27
34742;BME280;20968;42.696;23.360;2023-05-02T07:15:54;95666.97;;;18.25;43.64
34742;BME280;20968;42.696;23.360;2023-05-02T07:18:21;95666.88;;;18.42;43.35
34742;BME280;20968;42.696;23.360;2023-05-02T07:20:46;95663.44;;;18.25;43.19
34742;BME280;20968;42.696;23.360;2023-05-02T07:23:12;95666.59;;;18.45;43.79
34742;BME280;20968;42.696;23.360;2023-05-02T07:25:37;95676.84;;;18.67;43.66
34742;BME280;20968;42.696;23.360;2023-05-02T07:28:04;95674.88;;;18.91;42.63
34742;BME280;20968;42.696;23.360;2023-05-02T07:30:30;95664.50;;;18.86;42.26
34742;BME280;20968;42.696;23.360;2023-05-02T07:32:55;95664.19;;;18.95;41.88
34742;BME280;20968;42.696;23.360;2023-05-02T07:35:20;95668.56;;;19.20;41.97
34742;BME280;20968;42.696;23.360;2023-05-02T07:37:46;95661.88;;;19.28;41.82
34742;BME280;20968;42.696;23.360;2023-05-02T07:40:11;95670.31;;;19.47;41.87
34742;BME280;20968;42.696;23.360;2023-05-02T07:42:37;95671.00;;;19.29;40.86
34742;BME280;20968;42.696;23.360;2023-05-02T07:45:02;95674.19;;;19.14;40.45
34742;BME280;20968;42.696;23.360;2023-05-02T07:47:28;95676.31;;;19.32;40.55
34742;BME280;20968;42.696;23.360;2023-05-02T07:49:54;95671.13;;;19.42;41.70
34742;BME280;20968;42.696;23.360;2023-05-02T07:52:20;95674.50;;;19.58;40.99
34742;BME280;20968;42.696;23.360;2023-05-02T07:54:49;95668.69;;;19.56;40.30
34742;BME280;20968;42.696;23.360;2023-05-02T07:57:15;95671.41;;;19.62;40.33
34742;BME280;20968;42.696;23.360;2023-05-02T07:59:40;95670.75;;;19.74;42.94
34742;BME280;20968;42.696;23.360;2023-05-02T08:02:06;95663.16;;;19.93;40.95
34742;BME280;20968;42.696;23.360;2023-05-02T08:04:32;95671.22;;;20.02;40.78
34742;BME280;20968;42.696;23.360;2023-05-02T08:06:57;95666.34;;;20.21;40.27
34742;BME280;20968;42.696;23.360;2023-05-02T08:09:22;95664.75;;;20.44;39.85
34742;BME280;20968;42.696;23.360;2023-05-02T08:11:48;95673.25;;;20.38;39.02
34742;BME280;20968;42.696;23.360;2023-05-02T08:14:16;95677.41;;;20.14;39.64
34742;BME280;20968;42.696;23.360;2023-05-02T08:16:42;95668.13;;;20.24;39.49
34742;BME280;20968;42.696;23.360;2023-05-02T08:19:07;95681.19;;;20.53;39.37
34742;BME280;20968;42.696;23.360;2023-05-02T08:21:33;95669.53;;;20.49;38.92
34742;BME280;20968;42.696;23.360;2023-05-02T08:23:59;95679.16;;;20.53;39.49
34742;BME280;20968;42.696;23.360;2023-05-02T08:26:24;95671.84;;;20.63;37.76
34742;BME280;20968;42.696;23.360;2023-05-02T08:28:51;95660.34;;;20.67;38.28
34742;BME280;20968;42.696;23.360;2023-05-02T08:31:16;95677.19;;;20.98;38.01
34742;BME280;20968;42.696;23.360;2023-05-02T08:33:42;95657.69;;;21.06;38.50
34742;BME280;20968;42.696;23.360;2023-05-02T08:36:12;95664.16;;;21.01;37.36
34742;BME280;20968;42.696;23.360;2023-05-02T08:38:42;95676.88;;;21.02;36.29
34742;BME280;20968;42.696;23.360;2023-05-02T08:41:16;95676.69;;;21.13;36.74
34742;BME280;20968;42.696;23.360;2023-05-02T08:43:45;95661.13;;;20.99;38.04
34742;BME280;20968;42.696;23.360;2023-05-02T08:46:12;95671.75;;;20.87;37.18
34742;BME280;20968;42.696;23.360;2023-05-02T08:48:42;95667.75;;;20.83;37.64
34742;BME280;20968;42.696;23.360;2023-05-02T08:51:14;95664.00;;;21.24;38.99
34742;BME280;20968;42.696;23.360;2023-05-02T08:53:40;95673.63;;;21.42;36.47
34742;BME280;20968;42.696;23.360;2023-05-02T08:56:06;95666.88;;;21.63;37.43
34742;BME280;20968;42.696;23.360;2023-05-02T08:58:37;95653.38;;;21.62;36.97
34742;BME280;20968;42.696;23.360;2023-05-02T09:01:09;95651.13;;;21.73;36.79
34742;BME280;20968;42.696;23.360;2023-05-02T09:03:35;95642.94;;;21.75;36.25
34742;BME280;20968;42.696;23.360;2023-05-02T09:08:38;95651.56;;;21.90;34.88
34742;BME280;20968;42.696;23.360;2023-05-02T09:11:05;95656.88;;;22.27;35.63
34742;BME280;20968;42.696;23.360;2023-05-02T09:13:34;95655.06;;;22.16;34.85
34742;BME280;20968;42.696;23.360;2023-05-02T09:16:05;95646.34;;;22.07;34.72
34742;BME280;20968;42.696;23.360;2023-05-02T09:18:46;95643.63;;;22.27;34.27
34742;BME280;20968;42.696;23.360;2023-05-02T09:21:34;95652.06;;;22.61;34.48
34742;BME280;20968;42.696;23.360;2023-05-02T09:24:01;95645.44;;;22.38;33.68
34742;BME280;20968;42.696;23.360;2023-05-02T09:26:38;95642.44;;;22.23;34.22
34742;BME280;20968;42.696;23.360;2023-05-02T09:29:04;95639.53;;;22.15;34.30
34742;BME280;20968;42.696;23.360;2023-05-02T09:31:34;95645.00;;;22.47;34.20
34742;BME280;20968;42.696;23.360;2023-05-02T09:34:14;95643.06;;;22.42;33.60
34742;BME280;20968;42.696;23.360;2023-05-02T09:36:42;95637.25;;;22.60;33.08
34742;BME280;20968;42.696;23.360;2023-05-02T09:39:16;95642.84;;;22.93;32.80
34742;BME280;20968;42.696;23.360;2023-05-02T09:41:42;95626.56;;;23.12;32.96
34742;BME280;20968;42.696;23.360;2023-05-02T09:44:10;95641.09;;;23.24;33.01
34742;BME280;20968;42.696;23.360;2023-05-02T09:46:41;95634.63;;;23.36;34.97
34742;BME280;20968;42.696;23.360;2023-05-02T09:49:07;95617.28;;;23.52;32.42
34742;BME280;20968;42.696;23.360;2023-05-02T09:51:36;95619.53;;;23.54;33.34
34742;BME280;20968;42.696;23.360;2023-05-02T09:54:02;95612.63;;;23.55;34.35
34742;BME280;20968;42.696;23.360;2023-05-02T09:56:27;95628.66;;;23.40;31.91
34742;BME280;20968;42.696;23.360;2023-05-02T09:59:12;95616.44;;;23.37;31.41
34742;BME280;20968;42.696;23.360;2023-05-02T10:01:41;95608.59;;;23.71;32.62
34742;BME280;20968;42.696;23.360;2023-05-02T10:04:13;95608.59;;;23.99;31.36
34742;BME280;20968;42.696;23.360;2023-05-02T10:06:42;95612.13;;;23.92;31.56
34742;BME280;20968;42.696;23.360;2023-05-02T10:09:09;95607.38;;;23.79;31.55
34742;BME280;20968;42.696;23.360;2023-05-02T10:11:37;95611.41;;;23.71;31.50
34742;BME280;20968;42.696;23.360;2023-05-02T10:14:07;95598.94;;;23.79;31.59
34742;BME280;20968;42.696;23.360;2023-05-02T10:16:35;95610.00;;;23.85;30.83
34742;BME280;20968;42.696;23.360;2023-05-02T10:19:07;95586.69;;;24.12;31.41
34742;BME280;20968;42.696;23.360;2023-05-02T10:21:33;95598.56;;;24.26;31.03
34742;BME280;20968;42.696;23.360;2023-05-02T10:23:59;95592.09;;;24.03;31.08
34742;BME280;20968;42.696;23.360;2023-05-02T10:26:26;95595.34;;;23.79;30.88
34742;BME280;20968;42.696;23.360;2023-05-02T10:28:52;95587.75;;;23.94;31.37
34742;BME280;20968;42.696;23.360;2023-05-02T10:31:21;95586.69;;;24.12;30.56
34742;BME280;20968;42.696;23.360;2023-05-02T10:33:49;95587.81;;;24.17;31.96
34742;BME280;20968;42.696;23.360;2023-05-02T10:36:19;95582.75;;;24.15;33.73
34742;BME280;20968;42.696;23.360;2023-05-02T10:38:46;95579.53;;;24.11;32.29
34742;BME280;20968;42.696;23.360;2023-05-02T10:41:19;95581.13;;;24.34;31.86
34742;BME280;20968;42.696;23.360;2023-05-02T10:43:47;95575.03;;;24.08;30.95
34742;BME280;20968;42.696;23.360;2023-05-02T10:46:33;95575.59;;;24.07;30.89
34742;BME280;20968;42.696;23.360;2023-05-02T10:49:05;95577.88;;;24.16;31.59
34742;BME280;20968;42.696;23.360;2023-05-02T10:51:32;95575.47;;;24.20;30.54
34742;BME280;20968;42.696;23.360;2023-05-02T10:54:20;95565.69;;;24.21;31.17
34742;BME280;20968;42.696;23.360;2023-05-02T10:57:08;95575.97;;;24.03;31.48
34742;BME280;20968;42.696;23.360;2023-05-02T10:59:39;95569.47;;;24.23;30.87
34742;BME280;20968;42.696;23.360;2023-05-02T11:05:04;95571.44;;;24.50;30.01
34742;BME280;20968;42.696;23.360;2023-05-02T11:07:34;95559.06;;;24.68;29.96
34742;BME280;20968;42.696;23.360;2023-05-02T11:12:51;95557.78;;;25.07;30.57
34742;BME280;20968;42.696;23.360;2023-05-02T11:20:34;95558.19;;;24.23;30.41
34742;BME280;20968;42.696;23.360;2023-05-02T11:25:50;95549.28;;;23.61;31.64
34742;BME280;20968;42.696;23.360;2023-05-02T11:28:40;95546.31;;;23.67;31.21
34742;BME280;20968;42.696;23.360;2023-05-02T11:33:59;95565.19;;;23.24;32.08
34742;BME280;20968;42.696;23.360;2023-05-02T11:36:32;95545.16;;;23.27;31.84
34742;BME280;20968;42.696;23.360;2023-05-02T11:38:59;95539.31;;;23.25;31.82
34742;BME280;20968;42.696;23.360;2023-05-02T11:41:41;95539.31;;;23.53;32.38
34742;BME280;20968;42.696;23.360;2023-05-02T11:44:07;95529.38;;;23.52;32.41
34742;BME280;20968;42.696;23.360;2023-05-02T11:46:37;95535.53;;;23.51;32.06
34742;BME280;20968;42.696;23.360;2023-05-02T11:49:03;95524.19;;;23.71;31.82
34742;BME280;20968;42.696;23.360;2023-05-02T11:51:31;95525.31;;;23.68;32.24
34742;BME280;20968;42.696;23.360;2023-05-02T11:53:57;95527.44;;;23.47;32.16
34742;BME280;20968;42.696;23.360;2023-05-02T11:56:23;95516.59;;;23.51;31.61
34742;BME280;20968;42.696;23.360;2023-05-02T11:59:01;95522.44;;;23.96;32.07
34742;BME280;20968;42.696;23.360;2023-05-02T12:01:29;95508.31;;;23.81;31.39
34742;BME280;20968;42.696;23.360;2023-05-02T12:06:27;95504.50;;;23.71;31.62
34742;BME280;20968;42.696;23.360;2023-05-02T12:09:05;95514.31;;;23.42;31.66
34742;BME280;20968;42.696;23.360;2023-05-02T12:11:33;95509.53;;;23.30;31.38
34742;BME280;20968;42.696;23.360;2023-05-02T12:13:59;95508.69;;;23.42;32.20
34742;BME280;20968;42.696;23.360;2023-05-02T12:16:27;95513.19;;;23.45;31.72
34742;BME280;20968;42.696;23.360;2023-05-02T12:18:54;95509.50;;;23.22;31.40
34742;BME280;20968;42.696;23.360;2023-05-02T12:21:22;95496.91;;;23.51;31.65
34742;BME280;20968;42.696;23.360;2023-05-02T12:23:49;95490.84;;;23.75;32.55
34742;BME280;20968;42.696;23.360;2023-05-02T12:26:21;95491.19;;;23.71;32.39
34742;BME280;20968;42.696;23.360;2023-05-02T12:28:50;95487.81;;;23.73;31.48
34742;BME280;20968;42.696;23.360;2023-05-02T12:31:16;95490.50;;;23.86;30.37
34742;BME280;20968;42.696;23.360;2023-05-02T12:33:45;95493.06;;;23.69;30.75
34742;BME280;20968;42.696;23.360;2023-05-02T12:36:13;95473.63;;;23.43;30.66
34742;BME280;20968;42.696;23.360;2023-05-02T12:38:39;95464.75;;;23.32;30.66
34742;BME280;20968;42.696;23.360;2023-05-02T12:41:06;95466.75;;;23.59;30.75
34742;BME280;20968;42.696;23.360;2023-05-02T12:43:48;95458.59;;;23.76;29.78
34742;BME280;20968;42.696;23.360;2023-05-02T12:46:13;95459.91;;;23.82;29.91
34742;BME280;20968;42.696;23.360;2023-05-02T12:48:40;95454.53;;;23.92;29.60
34742;BME280;20968;42.696;23.360;2023-05-02T12:51:22;95454.50;;;23.84;30.35
34742;BME280;20968;42.696;23.360;2023-05-02T12:53:54;95464.44;;;23.85;29.24
34742;BME280;20968;42.696;23.360;2023-05-02T12:56:20;95447.69;;;23.72;29.59
34742;BME280;20968;42.696;23.360;2023-05-02T12:58:51;95457.19;;;24.05;30.40
34742;BME280;20968;42.696;23.360;2023-05-02T13:01:21;95448.34;;;24.01;29.54
34742;BME280;20968;42.696;23.360;2023-05-02T13:03:51;95451.91;;;24.01;30.60
34742;BME280;20968;42.696;23.360;2023-05-02T13:06:17;95444.06;;;24.15;29.25
34742;BME280;20968;42.696;23.360;2023-05-02T13:08:44;95464.31;;;24.06;28.71
34742;BME280;20968;42.696;23.360;2023-05-02T13:11:09;95450.56;;;23.95;29.93
34742;BME280;20968;42.696;23.360;2023-05-02T13:13:34;95444.78;;;24.23;28.59
34742;BME280;20968;42.696;23.360;2023-05-02T13:16:00;95445.75;;;24.18;29.23
34742;BME280;20968;42.696;23.360;2023-05-02T13:18:27;95457.69;;;23.81;29.06
34742;BME280;20968;42.696;23.360;2023-05-02T13:20:55;95469.78;;;23.61;29.20
34742;BME280;20968;42.696;23.360;2023-05-02T13:23:21;95460.16;;;23.49;29.62
34742;BME280;20968;42.696;23.360;2023-05-02T13:25:47;95459.34;;;23.34;29.32
34742;BME280;20968;42.696;23.360;2023-05-02T13:28:12;95464.03;;;23.31;29.33
34742;BME280;20968;42.696;23.360;2023-05-02T13:30:37;95455.81;;;23.41;29.18
34742;BME280;20968;42.696;23.360;2023-05-02T13:33:04;95456.28;;;23.67;29.63
34742;BME280;20968;42.696;23.360;2023-05-02T13:35:35;95458.69;;;24.06;29.63